• Join FlightAware (Why Join?)
  • Login
  • US Flag 
01:26PM EDT


 

Airport Tracker/Info


-or-


 

Live Flight TrackerFlight Track Log ✈ N8596W ✈ 09-May-2014 ✈ 3W3 - 2G9

Flight Track Log - Related Links

Times and Time Zones

All times are in EDT time to prevent confusion due to time zone crossing. See the N8596W flight status page for this flight to view local times or setup timezone preferences in your user account.

Time Position Orientation Groundspeed Altitude Reporting Facility
EDT Latitude Longitude Course Direction KTS MPH feet Rate Location/Type
05:56PM 38.9000 -76.3333 300° West 91 105 1,300  Level Potomac TRACON
05:57PM 38.9167 -76.3167 38° Northeast 109 125 1,900 600 Climbing Potomac TRACON
05:59PM 38.9500 -76.3167 360° North 127 146 2,600 540 Climbing Potomac TRACON
05:59PM 38.9833 -76.3167 360° North 121 139 3,100 480 Climbing Potomac TRACON
06:00PM 39.0167 -76.3333 339° North 123 142 3,600 480 Climbing Potomac TRACON
06:01PM 39.0500 -76.3333 360° North 124 143 4,100 420 Climbing Potomac TRACON
06:02PM 39.0140 -76.5775 300° West  Level Estimated
06:02PM 39.0833 -76.3500 339° North 126 145 4,500  Level Potomac TRACON
06:03PM 39.1167 -76.3500 360° North 130 150 4,800 300 Climbing Potomac TRACON
06:04PM 39.1500 -76.3667 339° North 132 152 5,200 420 Climbing Potomac TRACON
06:05PM 39.1833 -76.3667 360° North 126 145 5,700 300 Climbing Potomac TRACON
06:06PM 39.2167 -76.3833 339° North 134 154 5,900 60 Climbing Potomac TRACON
06:07PM 39.2500 -76.3833 360° North 148 170 5,900  Level Potomac TRACON
06:08PM 39.3000 -76.4000 346° North 145 167 5,900  Level Potomac TRACON
06:09PM 39.3333 -76.4167 339° North 132 152 5,900  Level Potomac TRACON
06:10PM 39.3500 -76.4667 293° West 130 150 5,900  Level Potomac TRACON
06:11PM 39.3667 -76.5000 303° West 133 153 5,900  Level Potomac TRACON
06:12PM 39.3833 -76.5333 303° West 133 153 5,900  Level Potomac TRACON
06:13PM 39.4000 -76.5833 293° West 135 155 5,900  Level Potomac TRACON
06:14PM 39.4167 -76.6167 303° West 133 153 5,900  Level Potomac TRACON
06:15PM 39.4500 -76.6667 311° West 137 158 5,900  Level Potomac TRACON
06:16PM 39.4667 -76.7000 303° West 134 154 5,900  Level Potomac TRACON
06:17PM 39.4833 -76.7500 293° West 133 153 5,900  Level Potomac TRACON
06:18PM 39.5000 -76.7833 303° West 132 152 5,900  Level Potomac TRACON
06:19PM 39.5167 -76.8167 303° West 134 154 5,900  Level Potomac TRACON
06:20PM 39.5333 -76.8667 293° West 133 153 6,000  Climbing Potomac TRACON
06:21PM 39.5667 -76.9000 322° Northwest 133 153 5,900 -60 Descending Potomac TRACON
06:22PM 39.5833 -76.9333 303° West 132 152 5,900 60 Level Potomac TRACON
06:23PM 39.6000 -76.9833 293° West 127 146 6,100 120 Climbing Potomac TRACON
06:24PM 39.6167 -77.0167 303° West 131 151 6,200  Climbing Potomac TRACON
06:25PM 39.6333 -77.0667 293° West 136 157 6,100 -120 Descending Potomac TRACON
06:26PM 39.6500 -77.1000 303° West 128 147 6,000  Descending Potomac TRACON
06:27PM 39.6333 -77.1333 237° Southwest 111 128 6,100  Climbing Potomac TRACON
06:28PM 39.6333 -77.1667 270° West 112 129 6,000 -60 Descending Potomac TRACON
06:29PM 39.6167 -77.2167 247° West 120 138 6,000  Level Potomac TRACON
06:30PM 39.6167 -77.2667 270° West 117 135 6,000 -60 Level Potomac TRACON
06:31PM 39.6167 -77.3000 270° West 125 144 5,900  Descending Potomac TRACON
06:32PM 39.6333 -77.3500 293° West 127 146 6,000  Climbing Potomac TRACON
06:33PM 39.6500 -77.3833 303° West 127 146 6,000 -60 Level Potomac TRACON
06:34PM 39.6561 -77.4258 281° West 123 142 5,900  Descending Cleveland Center
06:36PM 39.6669 -77.4689 288° West 123 142 6,000  Climbing Cleveland Center
06:37PM 39.6792 -77.5189 288° West 123 142 6,000  Level Cleveland Center
06:38PM 39.6878 -77.5606 285° West 123 142 6,000 -60 Level Cleveland Center
06:39PM 39.6981 -77.6042 287° West 123 142 5,900 -60 Descending Cleveland Center
06:39PM 39.7167 -77.6500 298° West 126 145 5,900  Level Potomac TRACON
06:40PM 39.7167 -77.6833 270° West 125 144 6,000  Climbing Potomac TRACON
06:41PM 39.7333 -77.7333 293° West 122 140 6,000  Level Potomac TRACON
06:42PM 39.7333 -77.7667 270° West 127 146 6,000 -60 Level Potomac TRACON
06:43PM 39.7500 -77.8167 293° West 129 148 5,900  Descending Potomac TRACON
06:44PM 39.7667 -77.8500 303° West 126 145 6,000  Climbing Potomac TRACON
06:46PM 39.7756 -77.9156 280° West 125 144 6,000  Level Cleveland Center
06:47PM 39.7864 -77.9586 288° West 125 144 6,000  Level Cleveland Center
06:48PM 39.7969 -78.0017 288° West 125 144 6,000  Level Cleveland Center
06:49PM 39.8089 -78.0519 287° West 125 144 6,000  Level Cleveland Center
06:50PM 39.8150 -78.0808 285° West 122 140 6,000  Level Cleveland Center
06:50PM 39.8189 -78.0933 292° West 124 143 6,000  Level Cleveland Center
06:51PM 39.8244 -78.1228 284° West 122 140 6,000  Level Cleveland Center
06:51PM 39.8297 -78.1361 297° West 124 143 6,000  Level Cleveland Center
06:52PM 39.8356 -78.1678 283° West 127 146 6,000 60 Level Cleveland Center
06:52PM 39.8400 -78.1797 296° West 124 143 6,100  Climbing Cleveland Center
06:53PM 39.8467 -78.2153 284° West 127 146 6,000 -120 Descending Cleveland Center
06:53PM 39.8506 -78.2244 299° West 125 144 6,000  Level Cleveland Center
06:54PM 39.8561 -78.2572 282° West 128 147 6,000  Level Cleveland Center
06:54PM 39.8603 -78.2686 295° West 125 144 6,000  Level Cleveland Center
06:55PM 39.8675 -78.2994 287° West 124 143 6,000  Level Cleveland Center
06:55PM 39.8719 -78.3111 296° West 125 144 6,000  Level Cleveland Center
06:56PM 39.8792 -78.3417 287° West 124 143 6,000  Level Cleveland Center
06:56PM 39.8839 -78.3636 286° West 125 144 6,000  Level Cleveland Center
06:57PM 39.8881 -78.3892 282° West 123 142 6,000  Level Cleveland Center
06:57PM 39.8936 -78.4053 294° West 124 143 6,000  Level Cleveland Center
06:58PM 39.8994 -78.4314 286° West 124 143 6,000  Level Cleveland Center
06:58PM 39.9050 -78.4486 293° West 124 143 6,000  Level Cleveland Center
06:59PM 39.9108 -78.4736 287° West 127 146 6,000  Level Cleveland Center
06:59PM 39.9142 -78.4931 283° West 125 144 6,000  Level Cleveland Center
07:00PM 39.9181 -78.5156 283° West 124 143 6,000  Level Cleveland Center
07:00PM 39.9233 -78.5350 289° West 125 144 6,000  Level Cleveland Center
07:01PM 39.9311 -78.5608 291° West 125 144 6,000 -120 Level Cleveland Center
07:01PM 39.9383 -78.5869 290° West 125 144 5,900  Descending Cleveland Center
07:02PM 39.9422 -78.6058 285° West 132 152 6,000 60 Climbing Cleveland Center
07:02PM 39.9483 -78.6253 292° West 126 145 6,000  Level Cleveland Center
07:04PM 39.9637 -78.6727 293° West  Level FlightAware Approximate
07:11PM 40.0311 -78.9886 285° West  Level FlightAware Approximate
07:12PM 40.0333 -79.0000 285° West  Level FlightAware Approximate